Yuriy Lisyanskiy — UIRX — position and weather

sailwx.info

Track history (hours):
 
Tides and Currents Weather Stations Pressure Air Temp Water Temp Dewpoint Dewpoint Depression Visibility Wind Speed Wind Dir Waves Ship Positions

Yuriy Lisyanskiy

Last reported at 2018-Feb-22 18:55 UTC. Time now 2018-Feb-22 19:25 UTC.
Position N 59°55' E 030°15'.

Length 64 m; draft 5.8 m.

Type: Other ship. MMSI: 273426110.

Date/timePositionNaut miles runAvg speedWind from/ knotsBaromVisibWave heightAir tempDewpointWater temp
2018-Feb-22 18:55N 59°55' E 030°15'0 0.0
2018-Feb-22 18:30N 59°55' E 030°15'0 0.0
2018-Feb-22 17:58N 59°55' E 030°15'0 0.0
2018-Feb-22 17:27N 59°55' E 030°15'0 0.0
2018-Feb-22 16:59N 59°55' E 030°15'0 0.0
2018-Feb-22 16:29N 59°55' E 030°15'0 0.0
2018-Feb-22 16:00N 59°55' E 030°15'0 0.0
2018-Feb-22 15:28N 59°55' E 030°15'0 0.0
2018-Feb-22 14:55N 59°55' E 030°15'0 0.0
2018-Feb-22 14:29N 59°55' E 030°15'0 0.0
2018-Feb-22 14:00N 59°55' E 030°15'0 0.0
2018-Feb-22 13:29N 59°55' E 030°15'0 0.0
2018-Feb-22 13:00N 59°55' E 030°15'0 0.0
2018-Feb-22 12:29N 59°55' E 030°15'0 0.0
2018-Feb-22 11:59N 59°55' E 030°15'0 0.0
2018-Feb-22 11:30N 59°55' E 030°15'0 0.0
2018-Feb-22 10:59N 59°55' E 030°15'0 0.0
2018-Feb-22 10:27N 59°55' E 030°15'0 0.0
2018-Feb-22 09:59N 59°55' E 030°15'0 0.0
2018-Feb-22 09:30N 59°55' E 030°15'0 0.0
2018-Feb-22 09:00N 59°55' E 030°15'0 0.0
2018-Feb-22 08:23N 59°55' E 030°15'0 0.0
2018-Feb-22 07:59N 59°55' E 030°15'0 0.0
2018-Feb-22 07:30N 59°55' E 030°15'0 0.0
2018-Feb-22 06:58N 59°55' E 030°15'0 0.0
2018-Feb-22 06:28N 59°55' E 030°15'0 0.0
2018-Feb-22 05:59N 59°55' E 030°15'0 0.0
2018-Feb-22 05:29N 59°55' E 030°15'0 0.0
2018-Feb-22 04:58N 59°55' E 030°15'0 0.0
2018-Feb-22 04:29N 59°55' E 030°15'0 0.0
2018-Feb-22 03:58N 59°55' E 030°15'0 0.0
2018-Feb-22 03:27N 59°55' E 030°15'0 0.0
2018-Feb-22 02:57N 59°55' E 030°15'0 0.0
2018-Feb-22 02:30N 59°55' E 030°15'0 0.0
2018-Feb-22 02:00N 59°55' E 030°15'0 0.0
2018-Feb-22 01:26N 59°55' E 030°15'0 0.0
2018-Feb-22 00:58N 59°55' E 030°15'0 0.0
2018-Feb-22 00:30N 59°55' E 030°15'0 0.0
2018-Feb-21 23:59N 59°55' E 030°15'0 0.0
2018-Feb-21 23:29N 59°55' E 030°15'0 0.0
2018-Feb-21 22:54N 59°55' E 030°15'0 0.0
2018-Feb-21 22:28N 59°55' E 030°15'0 0.0
2018-Feb-21 21:59N 59°55' E 030°15'0 0.0
2018-Feb-21 21:28N 59°55' E 030°15'0 0.0
2018-Feb-21 20:59N 59°55' E 030°15'0 0.0
2018-Feb-21 20:29N 59°55' E 030°15'0 0.0
2018-Feb-21 19:59N 59°55' E 030°15'0 0.0
2018-Feb-21 19:29N 59°55' E 030°15'0 0.0
2018-Feb-21 18:53N 59°55' E 030°15'0 0.0
2018-Feb-21 18:28N 59°55' E 030°15'0 0.0
2018-Feb-21 17:57N 59°55' E 030°15'0 0.0
2018-Feb-21 17:22N 59°55' E 030°15'0 0.0
2018-Feb-21 16:59N 59°55' E 030°15'0 0.0
2018-Feb-21 16:23N 59°55' E 030°15'0 0.0
2018-Feb-21 16:00N 59°55' E 030°15'0 0.0
2018-Feb-21 15:28N 59°55' E 030°15'0 0.0
2018-Feb-21 14:55N 59°55' E 030°15'0 0.0
2018-Feb-21 14:30N 59°55' E 030°15'0 0.0
2018-Feb-21 13:58N 59°55' E 030°15'0 0.0
2018-Feb-21 13:30N 59°55' E 030°15'0 0.0
2018-Feb-21 12:53N 59°55' E 030°15'0 0.0
2018-Feb-21 12:25N 59°55' E 030°15'0 0.0
2018-Feb-21 11:59N 59°55' E 030°15'0 0.0
2018-Feb-21 11:28N 59°55' E 030°15'0 0.0
2018-Feb-21 10:57N 59°55' E 030°15'0 0.0
2018-Feb-21 10:29N 59°55' E 030°15'0 0.0
2018-Feb-21 09:56N 59°55' E 030°15'0 0.0
2018-Feb-21 09:29N 59°55' E 030°15'0 0.0
2018-Feb-21 09:00N 59°55' E 030°15'0 0.0
2018-Feb-21 08:28N 59°55' E 030°15'0 0.0
2018-Feb-21 07:58N 59°55' E 030°15'0 0.0
2018-Feb-21 07:29N 59°55' E 030°15'0 0.0
2018-Feb-21 06:58N 59°55' E 030°15'0 0.0
2018-Feb-21 06:29N 59°55' E 030°15'0 0.3
2018-Feb-21 06:00N 59°55' E 030°14'3 5.3
2018-Feb-21 05:30N 59°53' E 030°10'4 7.9
2018-Feb-21 05:00N 59°55' E 030°03'4 8.5
2018-Feb-21 04:30N 59°56' E 029°55'5 9.3
2018-Feb-21 03:59N 59°59' E 029°46'15 5.2
2018-Feb-21 01:07N 60°01' E 029°17'1 3.7
2018-Feb-21 00:54N 60°01' E 029°15'2 5.1
2018-Feb-21 00:28N 60°01' E 029°11'4 7.6
2018-Feb-21 00:00N 60°02' E 029°04'4 7.1
2018-Feb-20 23:30N 60°02' E 028°57'4 8.3
2018-Feb-20 23:00N 60°02' E 028°48'4 7.0
2018-Feb-20 22:30N 60°01' E 028°41'4 7.3
2018-Feb-20 22:00N 59°58' E 028°37'5 9.2
2018-Feb-20 21:30N 59°54' E 028°32'510.3
2018-Feb-20 21:00N 59°51' E 028°26'4 8.2
2018-Feb-20 20:30N 59°54' E 028°31'5 9.4
2018-Feb-20 20:00N 59°55' E 028°40'3 5.8
2018-Feb-20 19:30N 59°54' E 028°35'4 8.1
2018-Feb-20 19:00N 59°52' E 028°28'5 9.7
2018-Feb-20 18:30N 59°47' E 028°25'0 0.6
2018-Feb-20 18:00N 59°47' E 028°25'0 0.2
2018-Feb-20 17:30N 59°47' E 028°24'4 7.2
2018-Feb-20 17:00N 59°50' E 028°26'4 8.6
2018-Feb-20 16:30N 59°54' E 028°31'4 7.8
2018-Feb-20 16:00N 59°56' E 028°37'0 0.0
2018-Feb-20 15:30N 59°56' E 028°37'0 0.0
2018-Feb-20 14:58N 59°56' E 028°37'0 0.0
2018-Feb-20 14:29N 59°56' E 028°37'0 0.0
2018-Feb-20 13:58N 59°56' E 028°37'0 0.0
2018-Feb-20 13:27N 59°56' E 028°37'0 0.0
2018-Feb-20 13:00N 59°56' E 028°37'0 0.0
2018-Feb-20 12:30N 59°56' E 028°37'0 0.0
2018-Feb-20 11:57N 59°56' E 028°37'0 0.0
2018-Feb-20 11:27N 59°56' E 028°37'0 0.0
2018-Feb-20 10:55N 59°56' E 028°37'0 0.0
2018-Feb-20 10:30N 59°56' E 028°37'0 0.0
2018-Feb-20 10:00N 59°56' E 028°37'0 0.0
2018-Feb-20 09:30N 59°56' E 028°37'0 0.0
2018-Feb-20 09:00N 59°56' E 028°37'0 0.0
2018-Feb-20 08:30N 59°56' E 028°37'0 0.0
2018-Feb-20 07:57N 59°56' E 028°37'0 0.0
2018-Feb-20 07:21N 59°56' E 028°37'0 0.0
2018-Feb-20 06:56N 59°56' E 028°37'0 0.0
2018-Feb-20 06:28N 59°56' E 028°37'0 0.0
2018-Feb-20 05:59N 59°56' E 028°37'0 0.0
2018-Feb-20 05:29N 59°56' E 028°37'0 0.0
2018-Feb-20 05:00N 59°56' E 028°37'4 7.2
2018-Feb-20 04:30N 59°60' E 028°35'2 3.2
2018-Feb-20 04:01N 59°58' E 028°36'3 5.7
2018-Feb-20 03:30N 59°56' E 028°34'1 2.0
2018-Feb-20 03:00N 59°55' E 028°33'4 7.1
2018-Feb-20 02:30N 59°52' E 028°28'4 7.1
2018-Feb-20 02:00N 59°49' E 028°26'4 7.4
2018-Feb-20 01:30N 59°45' E 028°24'0 0.9
2018-Feb-20 01:00N 59°45' E 028°24'1 2.7
2018-Feb-20 00:30N 59°46' E 028°24'2 5.0
2018-Feb-20 00:00N 59°48' E 028°25'2 4.2
2018-Feb-19 23:30N 59°51' E 028°26'3 5.2
2018-Feb-19 23:00N 59°53' E 028°29'2 3.9
2018-Feb-19 22:30N 59°54' E 028°31'2 3.7
2018-Feb-19 22:00N 59°56' E 028°33'2 4.8
2018-Feb-19 21:30N 59°58' E 028°35'1 1.4
2018-Feb-19 21:00N 59°58' E 028°36'4 7.3
2018-Feb-19 20:30N 59°54' E 028°38'4 8.4
2018-Feb-19 20:00N 59°58' E 028°36'4 7.7
2018-Feb-19 19:29N 60°02' E 028°33'1 3.1
2018-Feb-19 19:00N 60°01' E 028°35'1 1.7
2018-Feb-19 18:30N 59°60' E 028°35'2 4.2
2018-Feb-19 18:00N 60°02' E 028°33'1 1.1
2018-Feb-19 17:31N 60°02' E 028°32'2 3.4
2018-Feb-19 17:00N 60°01' E 028°35'3 6.1
2018-Feb-19 16:30N 59°58' E 028°35'4 7.7
2018-Feb-19 16:00N 59°54' E 028°35'1 2.3
2018-Feb-19 15:30N 59°53' E 028°35'0 0.0
2018-Feb-19 15:00N 59°53' E 028°35'0 0.0
2018-Feb-19 14:30N 59°53' E 028°35'0 0.0
2018-Feb-19 14:00N 59°53' E 028°35'0 0.0
2018-Feb-19 13:30N 59°53' E 028°35'0 0.0
2018-Feb-19 13:00N 59°53' E 028°35'0 0.0
2018-Feb-19 12:30N 59°53' E 028°35'0 0.0
2018-Feb-19 12:00N 59°53' E 028°35'0 0.0
2018-Feb-19 11:30N 59°53' E 028°35'0 0.0
2018-Feb-19 11:00N 59°53' E 028°35'0 0.0
2018-Feb-19 10:30N 59°53' E 028°35'0 0.0
2018-Feb-19 10:00N 59°53' E 028°35'2 4.4
2018-Feb-19 09:30N 59°52' E 028°31'4 8.3
2018-Feb-19 09:00N 59°49' E 028°25'5 9.4
2018-Feb-19 08:30N 59°44' E 028°24'1 2.6
2018-Feb-19 08:00N 59°46' E 028°24'510.4
2018-Feb-19 07:30N 59°51' E 028°26'510.1
2018-Feb-19 07:00N 59°55' E 028°33'3 6.2
2018-Feb-19 06:30N 59°56' E 028°38'3 6.2
2018-Feb-19 06:00N 59°53' E 028°36'0 0.4
2018-Feb-19 05:30N 59°53' E 028°35'0 0.0
2018-Feb-19 04:53N 59°53' E 028°35'0 0.0
2018-Feb-19 04:28N 59°53' E 028°35'0 0.0
2018-Feb-19 03:59N 59°53' E 028°35'0 0.1
2018-Feb-19 03:25N 59°53' E 028°35'0 0.1
2018-Feb-19 03:00N 59°53' E 028°36'0 0.1
2018-Feb-19 02:21N 59°53' E 028°36'0 0.1
2018-Feb-19 01:56N 59°53' E 028°36'0 0.0
2018-Feb-19 01:30N 59°53' E 028°36'0 0.0
2018-Feb-19 00:49N 59°53' E 028°36'0 0.0
2018-Feb-19 00:23N 59°53' E 028°36'0 0.1
2018-Feb-18 23:58N 59°53' E 028°36'0 0.1
2018-Feb-18 23:28N 59°53' E 028°36'0 0.1
2018-Feb-18 23:00N 59°53' E 028°36'0 0.1
2018-Feb-18 22:17N 59°53' E 028°36'0 0.0
2018-Feb-18 21:59N 59°53' E 028°36'0 0.0
2018-Feb-18 21:27N 59°53' E 028°36'0 0.0
2018-Feb-18 20:53N 59°53' E 028°36'0 0.0
2018-Feb-18 20:31N 59°53' E 028°36'2 4.0
2018-Feb-18 20:00N 59°54' E 028°39'2 4.1
2018-Feb-18 19:30N 59°53' E 028°36'0 0.6
2018-Feb-18 18:54N 59°53' E 028°35'0 0.0
2018-Feb-18 18:30N 59°53' E 028°35'0 0.1
2018-Feb-18 17:59N 59°53' E 028°35'0 0.1
2018-Feb-18 17:28N 59°53' E 028°35'0 0.0
2018-Feb-18 16:59N 59°53' E 028°35'0 0.0
2018-Feb-18 16:28N 59°53' E 028°35'0 0.0
2018-Feb-18 16:00N 59°53' E 028°35'0 0.0
2018-Feb-18 15:30N 59°53' E 028°35'0 0.8
2018-Feb-18 15:00N 59°53' E 028°36'2 4.1
2018-Feb-18 14:30N 59°54' E 028°39'0 0.4
2018-Feb-18 14:00N 59°54' E 028°40'1 2.6
2018-Feb-18 13:30N 59°56' E 028°39'0 0.5
2018-Feb-18 13:00N 59°56' E 028°40'0 1.0
2018-Feb-18 12:30N 59°55' E 028°39'2 4.0
2018-Feb-18 12:01N 59°55' E 028°35'4 8.9
2018-Feb-18 11:30N 59°52' E 028°29'2 3.3
2018-Feb-18 11:01N 59°50' E 028°26'4 7.2
2018-Feb-18 10:31N 59°53' E 028°31'2 4.4
2018-Feb-18 10:01N 59°55' E 028°33'3 5.7
2018-Feb-18 09:31N 59°58' E 028°36'4 7.4
2018-Feb-18 09:00N 60°01' E 028°37'2 4.4
2018-Feb-18 08:30N 59°59' E 028°36'4 8.6
2018-Feb-18 08:00N 59°55' E 028°37'1 2.5
2018-Feb-18 07:29N 59°54' E 028°38'0 0.0
2018-Feb-18 06:59N 59°54' E 028°38'0 0.0
2018-Feb-18 06:27N 59°54' E 028°38'0 0.0
2018-Feb-18 05:57N 59°54' E 028°38'0 0.0
2018-Feb-18 05:25N 59°54' E 028°38'0 0.0
2018-Feb-18 04:58N 59°54' E 028°38'0 0.0
2018-Feb-18 04:28N 59°54' E 028°38'0 0.0
2018-Feb-18 03:58N 59°54' E 028°38'0 0.0
2018-Feb-18 03:28N 59°54' E 028°38'0 0.0
2018-Feb-18 03:00N 59°54' E 028°38'0 0.0
2018-Feb-18 02:29N 59°54' E 028°38'0 0.0
2018-Feb-18 01:54N 59°54' E 028°38'0 0.0
2018-Feb-18 01:24N 59°54' E 028°38'0 0.0
2018-Feb-18 00:55N 59°54' E 028°38'0 0.0
2018-Feb-18 00:29N 59°54' E 028°38'0 0.0
2018-Feb-17 23:59N 59°54' E 028°38'0 0.0
2018-Feb-17 23:24N 59°54' E 028°38'0 0.0
2018-Feb-17 23:00N 59°54' E 028°38'0 0.0
2018-Feb-17 22:29N 59°54' E 028°38'0 0.0
2018-Feb-17 22:00N 59°54' E 028°38'0 0.0
2018-Feb-17 21:24N 59°54' E 028°38'0 0.0
2018-Feb-17 20:54N 59°54' E 028°38'0 0.0
2018-Feb-17 20:27N 59°54' E 028°38'0 0.0
2018-Feb-17 19:59N 59°54' E 028°38'1 1.5
2018-Feb-17 19:30N 59°54' E 028°37'1 1.2
2018-Feb-17 19:00N 59°54' E 028°36'0 0.4
2018-Feb-17 18:28N 59°54' E 028°36'0 0.2
2018-Feb-17 17:54N 59°54' E 028°36'0 1.2
2018-Feb-17 17:30N 59°54' E 028°35'0 0.2
2018-Feb-17 16:57N 59°54' E 028°36'0 0.3
2018-Feb-17 16:28N 59°54' E 028°36'0 0.0
2018-Feb-17 15:57N 59°54' E 028°36'0 0.0
2018-Feb-17 15:24N 59°54' E 028°36'1 3.6
2018-Feb-17 15:00N 59°55' E 028°34'3 6.2
2018-Feb-17 14:30N 59°53' E 028°30'4 7.9
2018-Feb-17 14:00N 59°50' E 028°26'1 2.1
2018-Feb-17 13:30N 59°49' E 028°25'4 8.6
2018-Feb-17 13:00N 59°53' E 028°29'4 8.2
2018-Feb-17 12:30N 59°56' E 028°34'2 3.5
2018-Feb-17 12:00N 59°57' E 028°37'3 5.6
2018-Feb-17 11:30N 59°55' E 028°33'3 6.9
2018-Feb-17 11:00N 59°52' E 028°29'5 9.8
2018-Feb-17 10:30N 59°48' E 028°25'3 6.7
2018-Feb-17 10:00N 59°51' E 028°26'3 7.0
2018-Feb-17 09:30N 59°53' E 028°31'5 9.9
2018-Feb-17 09:01N 59°54' E 028°40'1 2.0
2018-Feb-17 08:30N 59°55' E 028°39'3 6.4
2018-Feb-17 08:00N 59°54' E 028°33'4 7.1
2018-Feb-17 07:30N 59°57' E 028°34'3 4.7
2018-Feb-17 06:53N 59°55' E 028°36'0 0.0
2018-Feb-17 06:28N 59°55' E 028°36'0 0.0
2018-Feb-17 06:00N 59°55' E 028°36'0 0.1
2018-Feb-17 05:30N 59°55' E 028°36'0 0.7
2018-Feb-17 04:54N 59°55' E 028°36'0 0.4
2018-Feb-17 04:27N 59°55' E 028°36'0 0.0
2018-Feb-17 03:56N 59°55' E 028°36'0 0.0
2018-Feb-17 03:27N 59°55' E 028°36'0 0.0
2018-Feb-17 02:58N 59°55' E 028°36'0 0.0
2018-Feb-17 02:30N 59°55' E 028°36'0 0.0
2018-Feb-17 01:59N 59°55' E 028°36'0 0.0
2018-Feb-17 01:29N 59°55' E 028°36'0 0.0
2018-Feb-17 00:53N 59°55' E 028°36'0 0.0
2018-Feb-17 00:29N 59°55' E 028°36'0 0.0
2018-Feb-16 23:57N 59°55' E 028°36'0 0.0
2018-Feb-16 23:30N 59°55' E 028°36'0 0.0
2018-Feb-16 23:00N 59°55' E 028°36'0 0.0
2018-Feb-16 22:30N 59°55' E 028°36'0 0.0
2018-Feb-16 21:54N 59°55' E 028°36'0 0.0
2018-Feb-16 21:23N 59°55' E 028°36'0 0.0
2018-Feb-16 21:00N 59°55' E 028°36'0 0.0
2018-Feb-16 20:28N 59°55' E 028°36'0 0.0
2018-Feb-16 19:58N 59°55' E 028°36'0 0.0
2018-Feb-16 19:27N 59°55' E 028°36'0 0.0
2018-Feb-16 19:00N 59°55' E 028°36'0 0.0
2018-Feb-16 18:28N 59°55' E 028°36'0 0.0
2018-Feb-16 17:58N 59°55' E 028°36'0 0.0
2018-Feb-16 17:24N 59°55' E 028°36'0 0.0
2018-Feb-16 16:59N 59°55' E 028°36'0 0.0
2018-Feb-16 16:17N 59°55' E 028°36'0 0.0
2018-Feb-16 15:59N 59°55' E 028°36'0 0.0
2018-Feb-16 15:29N 59°55' E 028°36'3 6.1
2018-Feb-16 15:00N 59°58' E 028°35'3 4.9
2018-Feb-16 14:29N 60°00' E 028°36'3 7.3
2018-Feb-16 14:01N 59°57' E 028°35'0 0.6
2018-Feb-16 13:31N 59°56' E 028°35'2 4.5
2018-Feb-16 13:00N 59°55' E 028°32'4 8.2
2018-Feb-16 12:30N 59°51' E 028°28'4 8.2
2018-Feb-16 12:00N 59°47' E 028°25'1 1.9
2018-Feb-16 11:30N 59°47' E 028°24'3 5.1
2018-Feb-16 11:00N 59°49' E 028°25'0 0.0
2018-Feb-16 10:30N 59°49' E 028°25'3 5.1
2018-Feb-16 10:00N 59°51' E 028°27'5 9.1
2018-Feb-16 09:30N 59°54' E 028°33'1 2.4
2018-Feb-16 08:58N 59°55' E 028°36'0 0.0
2018-Feb-16 08:28N 59°55' E 028°36'0 0.0
2018-Feb-16 07:59N 59°55' E 028°36'0 0.0
2018-Feb-16 07:24N 59°55' E 028°36'0 0.0
2018-Feb-16 06:55N 59°55' E 028°36'0 0.0
2018-Feb-16 06:30N 59°55' E 028°36'0 0.0
2018-Feb-16 06:00N 59°55' E 028°36'0 0.0
2018-Feb-16 05:28N 59°55' E 028°36'0 0.0
2018-Feb-16 04:45N 59°55' E 028°36'0 0.0
2018-Feb-16 04:26N 59°55' E 028°36'0 0.0
2018-Feb-16 03:58N 59°55' E 028°36'0 0.7
2018-Feb-16 03:30N 59°55' E 028°37'4 7.6
2018-Feb-16 02:58N 59°59' E 028°35'2 4.6
2018-Feb-16 02:30N 60°01' E 028°36'5 9.5
2018-Feb-16 02:00N 59°56' E 028°35'1 2.2
2018-Feb-16 01:24N 59°55' E 028°36'0 0.0
2018-Feb-16 00:53N 59°55' E 028°36'0 0.0
2018-Feb-16 00:28N 59°55' E 028°36'0 0.0
2018-Feb-15 23:57N 59°55' E 028°36'0 0.0
2018-Feb-15 23:27N 59°55' E 028°36'0 0.0
2018-Feb-15 22:51N 59°55' E 028°36'0 0.0
2018-Feb-15 22:22N 59°55' E 028°36'0 0.0
2018-Feb-15 21:59N 59°55' E 028°36'0 0.0
2018-Feb-15 21:19N 59°55' E 028°36'0 0.0
2018-Feb-15 20:51N 59°55' E 028°36'0 0.0
2018-Feb-15 20:26N 59°55' E 028°36'0 0.0
2018-Feb-15 19:54N 59°55' E 028°36'0 0.0
2018-Feb-15 19:28N 59°55' E 028°36'0 0.0
2018-Feb-15 18:52N 59°55' E 028°36'0 0.0
2018-Feb-15 18:28N 59°55' E 028°36'0 0.0
2018-Feb-15 17:53N 59°55' E 028°36'0 0.0
2018-Feb-15 17:23N 59°55' E 028°36'0 0.0
2018-Feb-15 17:00N 59°55' E 028°36'0 0.0
2018-Feb-15 16:30N 59°55' E 028°36'0 0.0
2018-Feb-15 15:59N 59°55' E 028°36'0 0.0
2018-Feb-15 15:24N 59°55' E 028°36'0 0.0
2018-Feb-15 14:59N 59°55' E 028°36'0 0.0
2018-Feb-15 14:25N 59°55' E 028°36'0 0.0
2018-Feb-15 13:55N 59°55' E 028°36'0 0.0
2018-Feb-15 13:26N 59°55' E 028°36'0 0.0
2018-Feb-15 12:56N 59°55' E 028°36'0 1.1
2018-Feb-15 12:30N 59°55' E 028°35'5 9.6
2018-Feb-15 12:00N 59°51' E 028°28'3 5.5
2018-Feb-15 11:30N 59°49' E 028°25'4 7.5
2018-Feb-15 11:00N 59°53' E 028°28'3 5.2
2018-Feb-15 10:29N 59°55' E 028°31'1 2.8
2018-Feb-15 10:00N 59°56' E 028°33'4 8.8
2018-Feb-15 09:30N 59°52' E 028°29'4 7.9
2018-Feb-15 09:00N 59°48' E 028°26'3 6.6
2018-Feb-15 08:30N 59°52' E 028°27'4 8.8
2018-Feb-15 08:00N 59°55' E 028°33'5 9.7
2018-Feb-15 07:30N 59°51' E 028°27'4 8.3
2018-Feb-15 07:00N 59°47' E 028°25'1 1.7
2018-Feb-15 06:30N 59°48' E 028°24'2 4.5
2018-Feb-15 06:00N 59°50' E 028°25'5 9.5
2018-Feb-15 05:30N 59°54' E 028°31'1 2.8
2018-Feb-15 05:00N 59°55' E 028°33'510.4
2018-Feb-15 04:30N 59°51' E 028°27'5 9.5
2018-Feb-15 04:00N 59°46' E 028°24'3 6.9
2018-Feb-15 03:30N 59°50' E 028°25'3 5.9
2018-Feb-15 03:00N 59°52' E 028°28'3 6.6
2018-Feb-15 02:30N 59°54' E 028°34'1 2.4
2018-Feb-15 02:01N 59°54' E 028°36'0 0.0
2018-Feb-15 01:25N 59°54' E 028°36'0 0.0
2018-Feb-15 00:57N 59°54' E 028°36'0 0.0
2018-Feb-15 00:28N 59°54' E 028°36'0 0.0
2018-Feb-14 23:56N 59°54' E 028°36'0 0.0
2018-Feb-14 23:25N 59°54' E 028°36'0 0.0
2018-Feb-14 22:58N 59°54' E 028°36'0 0.0
2018-Feb-14 22:19N 59°54' E 028°36'0 0.0
2018-Feb-14 21:58N 59°54' E 028°36'0 0.0
2018-Feb-14 21:24N 59°54' E 028°36'0 0.0
2018-Feb-14 21:00N 59°54' E 028°36'0 0.0
2018-Feb-14 20:23N 59°54' E 028°36'0 0.0
2018-Feb-14 19:57N 59°54' E 028°36'0 0.0
2018-Feb-14 19:27N 59°54' E 028°36'0 0.0
2018-Feb-14 18:56N 59°54' E 028°36'0 0.0
2018-Feb-14 18:23N 59°54' E 028°36'0 0.0
2018-Feb-14 17:59N 59°54' E 028°36'0 0.0
2018-Feb-14 17:19N 59°54' E 028°36'0 0.0
2018-Feb-14 16:55N 59°54' E 028°36'0 0.0
2018-Feb-14 16:30N 59°54' E 028°36'0 0.0
2018-Feb-14 15:59N 59°54' E 028°36'0 0.0
2018-Feb-14 15:20N 59°54' E 028°36'0 0.0
2018-Feb-14 14:54N 59°54' E 028°36'0 0.0
2018-Feb-14 14:15N 59°54' E 028°36'0 0.0
2018-Feb-14 14:00N 59°54' E 028°36'0 0.0
2018-Feb-14 13:26N 59°54' E 028°36'0 0.0
2018-Feb-14 12:59N 59°54' E 028°36'0 0.0
2018-Feb-14 12:28N 59°54' E 028°36'0 0.0
2018-Feb-14 11:58N 59°54' E 028°36'0 0.0
2018-Feb-14 11:28N 59°54' E 028°36'0 0.0
2018-Feb-14 10:52N 59°54' E 028°36'0 0.0
2018-Feb-14 10:27N 59°54' E 028°36'0 0.0
2018-Feb-14 09:58N 59°54' E 028°36'0 0.0
2018-Feb-14 09:25N 59°54' E 028°36'0 0.0
2018-Feb-14 08:55N 59°54' E 028°36'0 0.0
2018-Feb-14 08:25N 59°54' E 028°36'0 0.0
2018-Feb-14 07:59N 59°54' E 028°36'0 0.0
2018-Feb-14 07:24N 59°54' E 028°36'0 0.0
2018-Feb-14 06:49N 59°54' E 028°36'0 0.0
2018-Feb-14 06:23N 59°54' E 028°36'0 0.0
2018-Feb-14 05:58N 59°54' E 028°36'0 0.0
2018-Feb-14 05:25N 59°54' E 028°36'0 0.0
2018-Feb-14 04:55N 59°54' E 028°36'0 0.0
2018-Feb-14 04:30N 59°54' E 028°36'0 0.0
2018-Feb-14 03:59N 59°54' E 028°36'0 0.0
2018-Feb-14 03:24N 59°54' E 028°36'0 0.0
2018-Feb-14 03:00N 59°54' E 028°36'0 0.0
2018-Feb-14 02:26N 59°54' E 028°36'0 0.0
2018-Feb-14 01:57N 59°54' E 028°36'0 0.0
2018-Feb-14 01:26N 59°54' E 028°36'0 0.0
2018-Feb-14 00:59N 59°54' E 028°36'0 0.0
2018-Feb-14 00:28N 59°54' E 028°36'0 0.0
2018-Feb-13 23:56N 59°54' E 028°36'0 0.0
2018-Feb-13 23:29N 59°54' E 028°36'0 0.0
2018-Feb-13 22:52N 59°54' E 028°36'0 0.0
2018-Feb-13 22:29N 59°54' E 028°36'0 0.0
2018-Feb-13 21:52N 59°54' E 028°36'0 0.0
2018-Feb-13 21:30N 59°54' E 028°36'0 0.0
2018-Feb-13 20:58N 59°54' E 028°36'0 0.0
2018-Feb-13 20:30N 59°54' E 028°36'0 0.0
2018-Feb-13 19:55N 59°54' E 028°36'0 0.0
2018-Feb-13 19:22N 59°54' E 028°36'0 0.0
2018-Feb-13 18:54N 59°54' E 028°36'0 0.0
2018-Feb-13 18:30N 59°54' E 028°36'0 0.0
2018-Feb-13 17:56N 59°54' E 028°36'0 0.0
2018-Feb-13 17:25N 59°54' E 028°36'0 0.0
2018-Feb-13 16:53N 59°54' E 028°36'0 0.8
2018-Feb-13 16:30N 59°54' E 028°36'5 9.6
2018-Feb-13 16:00N 59°52' E 028°28'3 6.7
2018-Feb-13 15:30N 59°48' E 028°26'4 7.1
2018-Feb-13 15:00N 59°52' E 028°27'1 1.3
2018-Feb-13 14:30N 59°52' E 028°29'3 6.5
2018-Feb-13 14:00N 59°49' E 028°26'3 6.3
2018-Feb-13 13:30N 59°46' E 028°25'1 1.7
2018-Feb-13 13:00N 59°47' E 028°24'2 4.8
2018-Feb-13 12:30N 59°49' E 028°25'2 4.5
2018-Feb-13 12:00N 59°51' E 028°27'2 3.5
2018-Feb-13 11:30N 59°53' E 028°29'2 4.6
2018-Feb-13 11:00N 59°54' E 028°32'2 3.5
2018-Feb-13 10:29N 59°54' E 028°36'0 0.0
2018-Feb-13 09:57N 59°54' E 028°36'0 0.0
2018-Feb-13 09:30N 59°54' E 028°36'0 0.0
2018-Feb-13 09:00N 59°54' E 028°36'0 0.0
2018-Feb-13 08:28N 59°54' E 028°36'0 0.0
2018-Feb-13 07:56N 59°54' E 028°36'0 0.0
2018-Feb-13 07:28N 59°54' E 028°36'0 0.0
2018-Feb-13 06:48N 59°54' E 028°36'0 0.0
2018-Feb-13 06:30N 59°54' E 028°36'0 0.0
2018-Feb-13 05:53N 59°54' E 028°36'0 0.0
2018-Feb-13 05:18N 59°54' E 028°36'0 0.0
2018-Feb-13 05:00N 59°54' E 028°36'0 0.0
2018-Feb-13 04:29N 59°54' E 028°36'0 0.0
2018-Feb-13 03:59N 59°54' E 028°36'1 2.3
2018-Feb-13 03:30N 59°55' E 028°37'2 4.2
2018-Feb-13 03:01N 59°57' E 028°34'1 1.0
2018-Feb-13 02:31N 59°57' E 028°35'2 4.1
2018-Feb-13 01:58N 59°55' E 028°37'0 0.0
2018-Feb-13 01:29N 59°55' E 028°37'0 0.0
2018-Feb-13 00:47N 59°55' E 028°37'0 0.0
2018-Feb-13 00:27N 59°55' E 028°37'0 0.0
2018-Feb-13 00:00N 59°55' E 028°37'0 0.0
2018-Feb-12 23:29N 59°55' E 028°37'1 1.6
2018-Feb-12 23:01N 59°56' E 028°37'5 9.4
2018-Feb-12 22:30N 60°00' E 028°35'2 4.2
2018-Feb-12 22:00N 59°58' E 028°36'3 6.5
2018-Feb-12 21:30N 59°55' E 028°33'4 7.7
2018-Feb-12 21:01N 59°52' E 028°29'4 7.7
2018-Feb-12 20:31N 59°49' E 028°26'2 4.1
2018-Feb-12 20:01N 59°47' E 028°24'0 0.0
2018-Feb-12 19:31N 59°47' E 028°24'0 0.3
2018-Feb-12 19:01N 59°47' E 028°24'  
Track history (hours):
 
Tides and Currents Weather Stations Pressure Air Temp Water Temp Dewpoint Dewpoint Depression Visibility Wind Speed Wind Dir Waves Ship Positions

Yuriy Lisyanskiy

Last reported at 2018-Feb-22 18:55 UTC. Time now 2018-Feb-22 19:25 UTC.
Position N 59°55' E 030°15'.

Length 64 m; draft 5.8 m.

Type: Other ship. MMSI: 273426110.

Date/timePositionNaut miles runAvg speedWind from/ knotsBaromVisibWave heightAir tempDewpointWater temp
2018-Feb-22 18:55N 59°55' E 030°15'0 0.0
2018-Feb-22 18:30N 59°55' E 030°15'0 0.0
2018-Feb-22 17:58N 59°55' E 030°15'0 0.0
2018-Feb-22 17:27N 59°55' E 030°15'0 0.0
2018-Feb-22 16:59N 59°55' E 030°15'0 0.0
2018-Feb-22 16:29N 59°55' E 030°15'0 0.0
2018-Feb-22 16:00N 59°55' E 030°15'0 0.0
2018-Feb-22 15:28N 59°55' E 030°15'0 0.0
2018-Feb-22 14:55N 59°55' E 030°15'0 0.0
2018-Feb-22 14:29N 59°55' E 030°15'0 0.0
2018-Feb-22 14:00N 59°55' E 030°15'0 0.0
2018-Feb-22 13:29N 59°55' E 030°15'0 0.0
2018-Feb-22 13:00N 59°55' E 030°15'0 0.0
2018-Feb-22 12:29N 59°55' E 030°15'0 0.0
2018-Feb-22 11:59N 59°55' E 030°15'0 0.0
2018-Feb-22 11:30N 59°55' E 030°15'0 0.0
2018-Feb-22 10:59N 59°55' E 030°15'0 0.0
2018-Feb-22 10:27N 59°55' E 030°15'0 0.0
2018-Feb-22 09:59N 59°55' E 030°15'0 0.0
2018-Feb-22 09:30N 59°55' E 030°15'0 0.0
2018-Feb-22 09:00N 59°55' E 030°15'0 0.0
2018-Feb-22 08:23N 59°55' E 030°15'0 0.0
2018-Feb-22 07:59N 59°55' E 030°15'0 0.0
2018-Feb-22 07:30N 59°55' E 030°15'0 0.0
2018-Feb-22 06:58N 59°55' E 030°15'0 0.0
2018-Feb-22 06:28N 59°55' E 030°15'0 0.0
2018-Feb-22 05:59N 59°55' E 030°15'0 0.0
2018-Feb-22 05:29N 59°55' E 030°15'0 0.0
2018-Feb-22 04:58N 59°55' E 030°15'0 0.0
2018-Feb-22 04:29N 59°55' E 030°15'0 0.0
2018-Feb-22 03:58N 59°55' E 030°15'0 0.0
2018-Feb-22 03:27N 59°55' E 030°15'0 0.0
2018-Feb-22 02:57N 59°55' E 030°15'0 0.0
2018-Feb-22 02:30N 59°55' E 030°15'0 0.0
2018-Feb-22 02:00N 59°55' E 030°15'0 0.0
2018-Feb-22 01:26N 59°55' E 030°15'0 0.0
2018-Feb-22 00:58N 59°55' E 030°15'0 0.0
2018-Feb-22 00:30N 59°55' E 030°15'0 0.0
2018-Feb-21 23:59N 59°55' E 030°15'0 0.0
2018-Feb-21 23:29N 59°55' E 030°15'0 0.0
2018-Feb-21 22:54N 59°55' E 030°15'0 0.0
2018-Feb-21 22:28N 59°55' E 030°15'0 0.0
2018-Feb-21 21:59N 59°55' E 030°15'0 0.0
2018-Feb-21 21:28N 59°55' E 030°15'0 0.0
2018-Feb-21 20:59N 59°55' E 030°15'0 0.0
2018-Feb-21 20:29N 59°55' E 030°15'0 0.0
2018-Feb-21 19:59N 59°55' E 030°15'0 0.0
2018-Feb-21 19:29N 59°55' E 030°15'0 0.0
2018-Feb-21 18:53N 59°55' E 030°15'0 0.0
2018-Feb-21 18:28N 59°55' E 030°15'0 0.0
2018-Feb-21 17:57N 59°55' E 030°15'0 0.0
2018-Feb-21 17:22N 59°55' E 030°15'0 0.0
2018-Feb-21 16:59N 59°55' E 030°15'0 0.0
2018-Feb-21 16:23N 59°55' E 030°15'0 0.0
2018-Feb-21 16:00N 59°55' E 030°15'0 0.0
2018-Feb-21 15:28N 59°55' E 030°15'0 0.0
2018-Feb-21 14:55N 59°55' E 030°15'0 0.0
2018-Feb-21 14:30N 59°55' E 030°15'0 0.0
2018-Feb-21 13:58N 59°55' E 030°15'0 0.0
2018-Feb-21 13:30N 59°55' E 030°15'0 0.0
2018-Feb-21 12:53N 59°55' E 030°15'0 0.0
2018-Feb-21 12:25N 59°55' E 030°15'0 0.0
2018-Feb-21 11:59N 59°55' E 030°15'0 0.0
2018-Feb-21 11:28N 59°55' E 030°15'0 0.0
2018-Feb-21 10:57N 59°55' E 030°15'0 0.0
2018-Feb-21 10:29N 59°55' E 030°15'0 0.0
2018-Feb-21 09:56N 59°55' E 030°15'0 0.0
2018-Feb-21 09:29N 59°55' E 030°15'0 0.0
2018-Feb-21 09:00N 59°55' E 030°15'0 0.0
2018-Feb-21 08:28N 59°55' E 030°15'0 0.0
2018-Feb-21 07:58N 59°55' E 030°15'0 0.0
2018-Feb-21 07:29N 59°55' E 030°15'0 0.0
2018-Feb-21 06:58N 59°55' E 030°15'0 0.0
2018-Feb-21 06:29N 59°55' E 030°15'0 0.3
2018-Feb-21 06:00N 59°55' E 030°14'3 5.3
2018-Feb-21 05:30N 59°53' E 030°10'4 7.9
2018-Feb-21 05:00N 59°55' E 030°03'4 8.5
2018-Feb-21 04:30N 59°56' E 029°55'5 9.3
2018-Feb-21 03:59N 59°59' E 029°46'15 5.2
2018-Feb-21 01:07N 60°01' E 029°17'1 3.7
2018-Feb-21 00:54N 60°01' E 029°15'2 5.1
2018-Feb-21 00:28N 60°01' E 029°11'4 7.6
2018-Feb-21 00:00N 60°02' E 029°04'4 7.1
2018-Feb-20 23:30N 60°02' E 028°57'4 8.3
2018-Feb-20 23:00N 60°02' E 028°48'4 7.0
2018-Feb-20 22:30N 60°01' E 028°41'4 7.3
2018-Feb-20 22:00N 59°58' E 028°37'5 9.2
2018-Feb-20 21:30N 59°54' E 028°32'510.3
2018-Feb-20 21:00N 59°51' E 028°26'4 8.2
2018-Feb-20 20:30N 59°54' E 028°31'5 9.4
2018-Feb-20 20:00N 59°55' E 028°40'3 5.8
2018-Feb-20 19:30N 59°54' E 028°35'4 8.1
2018-Feb-20 19:00N 59°52' E 028°28'5 9.7
2018-Feb-20 18:30N 59°47' E 028°25'0 0.6
2018-Feb-20 18:00N 59°47' E 028°25'0 0.2
2018-Feb-20 17:30N 59°47' E 028°24'4 7.2
2018-Feb-20 17:00N 59°50' E 028°26'4 8.6
2018-Feb-20 16:30N 59°54' E 028°31'4 7.8
2018-Feb-20 16:00N 59°56' E 028°37'0 0.0
2018-Feb-20 15:30N 59°56' E 028°37'0 0.0
2018-Feb-20 14:58N 59°56' E 028°37'0 0.0
2018-Feb-20 14:29N 59°56' E 028°37'0 0.0
2018-Feb-20 13:58N 59°56' E 028°37'0 0.0
2018-Feb-20 13:27N 59°56' E 028°37'0 0.0
2018-Feb-20 13:00N 59°56' E 028°37'0 0.0
2018-Feb-20 12:30N 59°56' E 028°37'0 0.0
2018-Feb-20 11:57N 59°56' E 028°37'0 0.0
2018-Feb-20 11:27N 59°56' E 028°37'0 0.0
2018-Feb-20 10:55N 59°56' E 028°37'0 0.0
2018-Feb-20 10:30N 59°56' E 028°37'0 0.0
2018-Feb-20 10:00N 59°56' E 028°37'0 0.0
2018-Feb-20 09:30N 59°56' E 028°37'0 0.0
2018-Feb-20 09:00N 59°56' E 028°37'0 0.0
2018-Feb-20 08:30N 59°56' E 028°37'0 0.0
2018-Feb-20 07:57N 59°56' E 028°37'0 0.0
2018-Feb-20 07:21N 59°56' E 028°37'0 0.0
2018-Feb-20 06:56N 59°56' E 028°37'0 0.0
2018-Feb-20 06:28N 59°56' E 028°37'0 0.0
2018-Feb-20 05:59N 59°56' E 028°37'0 0.0
2018-Feb-20 05:29N 59°56' E 028°37'0 0.0
2018-Feb-20 05:00N 59°56' E 028°37'4 7.2
2018-Feb-20 04:30N 59°60' E 028°35'2 3.2
2018-Feb-20 04:01N 59°58' E 028°36'3 5.7
2018-Feb-20 03:30N 59°56' E 028°34'1 2.0
2018-Feb-20 03:00N 59°55' E 028°33'4 7.1
2018-Feb-20 02:30N 59°52' E 028°28'4 7.1
2018-Feb-20 02:00N 59°49' E 028°26'4 7.4
2018-Feb-20 01:30N 59°45' E 028°24'0 0.9
2018-Feb-20 01:00N 59°45' E 028°24'1 2.7
2018-Feb-20 00:30N 59°46' E 028°24'2 5.0
2018-Feb-20 00:00N 59°48' E 028°25'2 4.2
2018-Feb-19 23:30N 59°51' E 028°26'3 5.2
2018-Feb-19 23:00N 59°53' E 028°29'2 3.9
2018-Feb-19 22:30N 59°54' E 028°31'2 3.7
2018-Feb-19 22:00N 59°56' E 028°33'2 4.8
2018-Feb-19 21:30N 59°58' E 028°35'1 1.4
2018-Feb-19 21:00N 59°58' E 028°36'4 7.3
2018-Feb-19 20:30N 59°54' E 028°38'4 8.4
2018-Feb-19 20:00N 59°58' E 028°36'4 7.7
2018-Feb-19 19:29N 60°02' E 028°33'1 3.1
2018-Feb-19 19:00N 60°01' E 028°35'1 1.7
2018-Feb-19 18:30N 59°60' E 028°35'2 4.2
2018-Feb-19 18:00N 60°02' E 028°33'1 1.1
2018-Feb-19 17:31N 60°02' E 028°32'2 3.4
2018-Feb-19 17:00N 60°01' E 028°35'3 6.1
2018-Feb-19 16:30N 59°58' E 028°35'4 7.7
2018-Feb-19 16:00N 59°54' E 028°35'1 2.3
2018-Feb-19 15:30N 59°53' E 028°35'0 0.0
2018-Feb-19 15:00N 59°53' E 028°35'0 0.0
2018-Feb-19 14:30N 59°53' E 028°35'0 0.0
2018-Feb-19 14:00N 59°53' E 028°35'0 0.0
2018-Feb-19 13:30N 59°53' E 028°35'0 0.0
2018-Feb-19 13:00N 59°53' E 028°35'0 0.0
2018-Feb-19 12:30N 59°53' E 028°35'0 0.0
2018-Feb-19 12:00N 59°53' E 028°35'0 0.0
2018-Feb-19 11:30N 59°53' E 028°35'0 0.0
2018-Feb-19 11:00N 59°53' E 028°35'0 0.0
2018-Feb-19 10:30N 59°53' E 028°35'0 0.0
2018-Feb-19 10:00N 59°53' E 028°35'2 4.4
2018-Feb-19 09:30N 59°52' E 028°31'4 8.3
2018-Feb-19 09:00N 59°49' E 028°25'5 9.4
2018-Feb-19 08:30N 59°44' E 028°24'1 2.6
2018-Feb-19 08:00N 59°46' E 028°24'510.4
2018-Feb-19 07:30N 59°51' E 028°26'510.1
2018-Feb-19 07:00N 59°55' E 028°33'3 6.2
2018-Feb-19 06:30N 59°56' E 028°38'3 6.2
2018-Feb-19 06:00N 59°53' E 028°36'0 0.4
2018-Feb-19 05:30N 59°53' E 028°35'0 0.0
2018-Feb-19 04:53N 59°53' E 028°35'0 0.0
2018-Feb-19 04:28N 59°53' E 028°35'0 0.0
2018-Feb-19 03:59N 59°53' E 028°35'0 0.1
2018-Feb-19 03:25N 59°53' E 028°35'0 0.1
2018-Feb-19 03:00N 59°53' E 028°36'0 0.1
2018-Feb-19 02:21N 59°53' E 028°36'0 0.1
2018-Feb-19 01:56N 59°53' E 028°36'0 0.0
2018-Feb-19 01:30N 59°53' E 028°36'0 0.0
2018-Feb-19 00:49N 59°53' E 028°36'0 0.0
2018-Feb-19 00:23N 59°53' E 028°36'0 0.1
2018-Feb-18 23:58N 59°53' E 028°36'0 0.1
2018-Feb-18 23:28N 59°53' E 028°36'0 0.1
2018-Feb-18 23:00N 59°53' E 028°36'0 0.1
2018-Feb-18 22:17N 59°53' E 028°36'0 0.0
2018-Feb-18 21:59N 59°53' E 028°36'0 0.0
2018-Feb-18 21:27N 59°53' E 028°36'0 0.0
2018-Feb-18 20:53N 59°53' E 028°36'0 0.0
2018-Feb-18 20:31N 59°53' E 028°36'2 4.0
2018-Feb-18 20:00N 59°54' E 028°39'2 4.1
2018-Feb-18 19:30N 59°53' E 028°36'0 0.6
2018-Feb-18 18:54N 59°53' E 028°35'0 0.0
2018-Feb-18 18:30N 59°53' E 028°35'0 0.1
2018-Feb-18 17:59N 59°53' E 028°35'0 0.1
2018-Feb-18 17:28N 59°53' E 028°35'0 0.0
2018-Feb-18 16:59N 59°53' E 028°35'0 0.0
2018-Feb-18 16:28N 59°53' E 028°35'0 0.0
2018-Feb-18 16:00N 59°53' E 028°35'0 0.0
2018-Feb-18 15:30N 59°53' E 028°35'0 0.8
2018-Feb-18 15:00N 59°53' E 028°36'2 4.1
2018-Feb-18 14:30N 59°54' E 028°39'0 0.4
2018-Feb-18 14:00N 59°54' E 028°40'1 2.6
2018-Feb-18 13:30N 59°56' E 028°39'0 0.5
2018-Feb-18 13:00N 59°56' E 028°40'0 1.0
2018-Feb-18 12:30N 59°55' E 028°39'2 4.0
2018-Feb-18 12:01N 59°55' E 028°35'4 8.9
2018-Feb-18 11:30N 59°52' E 028°29'2 3.3
2018-Feb-18 11:01N 59°50' E 028°26'4 7.2
2018-Feb-18 10:31N 59°53' E 028°31'2 4.4
2018-Feb-18 10:01N 59°55' E 028°33'3 5.7
2018-Feb-18 09:31N 59°58' E 028°36'4 7.4
2018-Feb-18 09:00N 60°01' E 028°37'2 4.4
2018-Feb-18 08:30N 59°59' E 028°36'4 8.6
2018-Feb-18 08:00N 59°55' E 028°37'1 2.5
2018-Feb-18 07:29N 59°54' E 028°38'0 0.0
2018-Feb-18 06:59N 59°54' E 028°38'0 0.0
2018-Feb-18 06:27N 59°54' E 028°38'0 0.0
2018-Feb-18 05:57N 59°54' E 028°38'0 0.0
2018-Feb-18 05:25N 59°54' E 028°38'0 0.0
2018-Feb-18 04:58N 59°54' E 028°38'0 0.0
2018-Feb-18 04:28N 59°54' E 028°38'0 0.0
2018-Feb-18 03:58N 59°54' E 028°38'0 0.0
2018-Feb-18 03:28N 59°54' E 028°38'0 0.0
2018-Feb-18 03:00N 59°54' E 028°38'0 0.0
2018-Feb-18 02:29N 59°54' E 028°38'0 0.0
2018-Feb-18 01:54N 59°54' E 028°38'0 0.0
2018-Feb-18 01:24N 59°54' E 028°38'0 0.0
2018-Feb-18 00:55N 59°54' E 028°38'0 0.0
2018-Feb-18 00:29N 59°54' E 028°38'0 0.0
2018-Feb-17 23:59N 59°54' E 028°38'0 0.0
2018-Feb-17 23:24N 59°54' E 028°38'0 0.0
2018-Feb-17 23:00N 59°54' E 028°38'0 0.0
2018-Feb-17 22:29N 59°54' E 028°38'0 0.0
2018-Feb-17 22:00N 59°54' E 028°38'0 0.0
2018-Feb-17 21:24N 59°54' E 028°38'0 0.0
2018-Feb-17 20:54N 59°54' E 028°38'0 0.0
2018-Feb-17 20:27N 59°54' E 028°38'0 0.0
2018-Feb-17 19:59N 59°54' E 028°38'1 1.5
2018-Feb-17 19:30N 59°54' E 028°37'1 1.2
2018-Feb-17 19:00N 59°54' E 028°36'0 0.4
2018-Feb-17 18:28N 59°54' E 028°36'0 0.2
2018-Feb-17 17:54N 59°54' E 028°36'0 1.2
2018-Feb-17 17:30N 59°54' E 028°35'0 0.2
2018-Feb-17 16:57N 59°54' E 028°36'0 0.3
2018-Feb-17 16:28N 59°54' E 028°36'0 0.0
2018-Feb-17 15:57N 59°54' E 028°36'0 0.0
2018-Feb-17 15:24N 59°54' E 028°36'1 3.6
2018-Feb-17 15:00N 59°55' E 028°34'3 6.2
2018-Feb-17 14:30N 59°53' E 028°30'4 7.9
2018-Feb-17 14:00N 59°50' E 028°26'1 2.1
2018-Feb-17 13:30N 59°49' E 028°25'4 8.6
2018-Feb-17 13:00N 59°53' E 028°29'4 8.2
2018-Feb-17 12:30N 59°56' E 028°34'2 3.5
2018-Feb-17 12:00N 59°57' E 028°37'3 5.6
2018-Feb-17 11:30N 59°55' E 028°33'3 6.9
2018-Feb-17 11:00N 59°52' E 028°29'5 9.8
2018-Feb-17 10:30N 59°48' E 028°25'3 6.7
2018-Feb-17 10:00N 59°51' E 028°26'3 7.0
2018-Feb-17 09:30N 59°53' E 028°31'5 9.9
2018-Feb-17 09:01N 59°54' E 028°40'1 2.0
2018-Feb-17 08:30N 59°55' E 028°39'3 6.4
2018-Feb-17 08:00N 59°54' E 028°33'4 7.1
2018-Feb-17 07:30N 59°57' E 028°34'3 4.7
2018-Feb-17 06:53N 59°55' E 028°36'0 0.0
2018-Feb-17 06:28N 59°55' E 028°36'0 0.0
2018-Feb-17 06:00N 59°55' E 028°36'0 0.1
2018-Feb-17 05:30N 59°55' E 028°36'0 0.7
2018-Feb-17 04:54N 59°55' E 028°36'0 0.4
2018-Feb-17 04:27N 59°55' E 028°36'0 0.0
2018-Feb-17 03:56N 59°55' E 028°36'0 0.0
2018-Feb-17 03:27N 59°55' E 028°36'0 0.0
2018-Feb-17 02:58N 59°55' E 028°36'0 0.0
2018-Feb-17 02:30N 59°55' E 028°36'0 0.0
2018-Feb-17 01:59N 59°55' E 028°36'0 0.0
2018-Feb-17 01:29N 59°55' E 028°36'0 0.0
2018-Feb-17 00:53N 59°55' E 028°36'0 0.0
2018-Feb-17 00:29N 59°55' E 028°36'0 0.0
2018-Feb-16 23:57N 59°55' E 028°36'0 0.0
2018-Feb-16 23:30N 59°55' E 028°36'0 0.0
2018-Feb-16 23:00N 59°55' E 028°36'0 0.0
2018-Feb-16 22:30N 59°55' E 028°36'0 0.0
2018-Feb-16 21:54N 59°55' E 028°36'0 0.0
2018-Feb-16 21:23N 59°55' E 028°36'0 0.0
2018-Feb-16 21:00N 59°55' E 028°36'0 0.0
2018-Feb-16 20:28N 59°55' E 028°36'0 0.0
2018-Feb-16 19:58N 59°55' E 028°36'0 0.0
2018-Feb-16 19:27N 59°55' E 028°36'0 0.0
2018-Feb-16 19:00N 59°55' E 028°36'0 0.0
2018-Feb-16 18:28N 59°55' E 028°36'0 0.0
2018-Feb-16 17:58N 59°55' E 028°36'0 0.0
2018-Feb-16 17:24N 59°55' E 028°36'0 0.0
2018-Feb-16 16:59N 59°55' E 028°36'0 0.0
2018-Feb-16 16:17N 59°55' E 028°36'0 0.0
2018-Feb-16 15:59N 59°55' E 028°36'0 0.0
2018-Feb-16 15:29N 59°55' E 028°36'3 6.1
2018-Feb-16 15:00N 59°58' E 028°35'3 4.9
2018-Feb-16 14:29N 60°00' E 028°36'3 7.3
2018-Feb-16 14:01N 59°57' E 028°35'0 0.6
2018-Feb-16 13:31N 59°56' E 028°35'2 4.5
2018-Feb-16 13:00N 59°55' E 028°32'4 8.2
2018-Feb-16 12:30N 59°51' E 028°28'4 8.2
2018-Feb-16 12:00N 59°47' E 028°25'1 1.9
2018-Feb-16 11:30N 59°47' E 028°24'3 5.1
2018-Feb-16 11:00N 59°49' E 028°25'0 0.0
2018-Feb-16 10:30N 59°49' E 028°25'3 5.1
2018-Feb-16 10:00N 59°51' E 028°27'5 9.1
2018-Feb-16 09:30N 59°54' E 028°33'1 2.4
2018-Feb-16 08:58N 59°55' E 028°36'0 0.0
2018-Feb-16 08:28N 59°55' E 028°36'0 0.0
2018-Feb-16 07:59N 59°55' E 028°36'0 0.0
2018-Feb-16 07:24N 59°55' E 028°36'0 0.0
2018-Feb-16 06:55N 59°55' E 028°36'0 0.0
2018-Feb-16 06:30N 59°55' E 028°36'0 0.0
2018-Feb-16 06:00N 59°55' E 028°36'0 0.0
2018-Feb-16 05:28N 59°55' E 028°36'0 0.0
2018-Feb-16 04:45N 59°55' E 028°36'0 0.0
2018-Feb-16 04:26N 59°55' E 028°36'0 0.0
2018-Feb-16 03:58N 59°55' E 028°36'0 0.7
2018-Feb-16 03:30N 59°55' E 028°37'4 7.6
2018-Feb-16 02:58N 59°59' E 028°35'2 4.6
2018-Feb-16 02:30N 60°01' E 028°36'5 9.5
2018-Feb-16 02:00N 59°56' E 028°35'1 2.2
2018-Feb-16 01:24N 59°55' E 028°36'0 0.0
2018-Feb-16 00:53N 59°55' E 028°36'0 0.0
2018-Feb-16 00:28N 59°55' E 028°36'0 0.0
2018-Feb-15 23:57N 59°55' E 028°36'0 0.0
2018-Feb-15 23:27N 59°55' E 028°36'0 0.0
2018-Feb-15 22:51N 59°55' E 028°36'0 0.0
2018-Feb-15 22:22N 59°55' E 028°36'0 0.0
2018-Feb-15 21:59N 59°55' E 028°36'0 0.0
2018-Feb-15 21:19N 59°55' E 028°36'0 0.0
2018-Feb-15 20:51N 59°55' E 028°36'0 0.0
2018-Feb-15 20:26N 59°55' E 028°36'0 0.0
2018-Feb-15 19:54N 59°55' E 028°36'0 0.0
2018-Feb-15 19:28N 59°55' E 028°36'0 0.0
2018-Feb-15 18:52N 59°55' E 028°36'0 0.0
2018-Feb-15 18:28N 59°55' E 028°36'0 0.0
2018-Feb-15 17:53N 59°55' E 028°36'0 0.0
2018-Feb-15 17:23N 59°55' E 028°36'0 0.0
2018-Feb-15 17:00N 59°55' E 028°36'0 0.0
2018-Feb-15 16:30N 59°55' E 028°36'0 0.0
2018-Feb-15 15:59N 59°55' E 028°36'0 0.0
2018-Feb-15 15:24N 59°55' E 028°36'0 0.0
2018-Feb-15 14:59N 59°55' E 028°36'0 0.0
2018-Feb-15 14:25N 59°55' E 028°36'0 0.0
2018-Feb-15 13:55N 59°55' E 028°36'0 0.0
2018-Feb-15 13:26N 59°55' E 028°36'0 0.0
2018-Feb-15 12:56N 59°55' E 028°36'0 1.1
2018-Feb-15 12:30N 59°55' E 028°35'5 9.6
2018-Feb-15 12:00N 59°51' E 028°28'3 5.5
2018-Feb-15 11:30N 59°49' E 028°25'4 7.5
2018-Feb-15 11:00N 59°53' E 028°28'3 5.2
2018-Feb-15 10:29N 59°55' E 028°31'1 2.8
2018-Feb-15 10:00N 59°56' E 028°33'4 8.8
2018-Feb-15 09:30N 59°52' E 028°29'4 7.9
2018-Feb-15 09:00N 59°48' E 028°26'3 6.6
2018-Feb-15 08:30N 59°52' E 028°27'4 8.8
2018-Feb-15 08:00N 59°55' E 028°33'5 9.7
2018-Feb-15 07:30N 59°51' E 028°27'4 8.3
2018-Feb-15 07:00N 59°47' E 028°25'1 1.7
2018-Feb-15 06:30N 59°48' E 028°24'2 4.5
2018-Feb-15 06:00N 59°50' E 028°25'5 9.5
2018-Feb-15 05:30N 59°54' E 028°31'1 2.8
2018-Feb-15 05:00N 59°55' E 028°33'510.4
2018-Feb-15 04:30N 59°51' E 028°27'5 9.5
2018-Feb-15 04:00N 59°46' E 028°24'3 6.9
2018-Feb-15 03:30N 59°50' E 028°25'3 5.9
2018-Feb-15 03:00N 59°52' E 028°28'3 6.6
2018-Feb-15 02:30N 59°54' E 028°34'1 2.4
2018-Feb-15 02:01N 59°54' E 028°36'0 0.0
2018-Feb-15 01:25N 59°54' E 028°36'0 0.0
2018-Feb-15 00:57N 59°54' E 028°36'0 0.0
2018-Feb-15 00:28N 59°54' E 028°36'0 0.0
2018-Feb-14 23:56N 59°54' E 028°36'0 0.0
2018-Feb-14 23:25N 59°54' E 028°36'0 0.0
2018-Feb-14 22:58N 59°54' E 028°36'0 0.0
2018-Feb-14 22:19N 59°54' E 028°36'0 0.0
2018-Feb-14 21:58N 59°54' E 028°36'0 0.0
2018-Feb-14 21:24N 59°54' E 028°36'0 0.0
2018-Feb-14 21:00N 59°54' E 028°36'0 0.0
2018-Feb-14 20:23N 59°54' E 028°36'0 0.0
2018-Feb-14 19:57N 59°54' E 028°36'0 0.0
2018-Feb-14 19:27N 59°54' E 028°36'0 0.0
2018-Feb-14 18:56N 59°54' E 028°36'0 0.0
2018-Feb-14 18:23N 59°54' E 028°36'0 0.0
2018-Feb-14 17:59N 59°54' E 028°36'0 0.0
2018-Feb-14 17:19N 59°54' E 028°36'0 0.0
2018-Feb-14 16:55N 59°54' E 028°36'0 0.0
2018-Feb-14 16:30N 59°54' E 028°36'0 0.0
2018-Feb-14 15:59N 59°54' E 028°36'0 0.0
2018-Feb-14 15:20N 59°54' E 028°36'0 0.0
2018-Feb-14 14:54N 59°54' E 028°36'0 0.0
2018-Feb-14 14:15N 59°54' E 028°36'0 0.0
2018-Feb-14 14:00N 59°54' E 028°36'0 0.0
2018-Feb-14 13:26N 59°54' E 028°36'0 0.0
2018-Feb-14 12:59N 59°54' E 028°36'0 0.0
2018-Feb-14 12:28N 59°54' E 028°36'0 0.0
2018-Feb-14 11:58N 59°54' E 028°36'0 0.0
2018-Feb-14 11:28N 59°54' E 028°36'0 0.0
2018-Feb-14 10:52N 59°54' E 028°36'0 0.0
2018-Feb-14 10:27N 59°54' E 028°36'0 0.0
2018-Feb-14 09:58N 59°54' E 028°36'0 0.0
2018-Feb-14 09:25N 59°54' E 028°36'0 0.0
2018-Feb-14 08:55N 59°54' E 028°36'0 0.0
2018-Feb-14 08:25N 59°54' E 028°36'0 0.0
2018-Feb-14 07:59N 59°54' E 028°36'0 0.0
2018-Feb-14 07:24N 59°54' E 028°36'0 0.0
2018-Feb-14 06:49N 59°54' E 028°36'0 0.0
2018-Feb-14 06:23N 59°54' E 028°36'0 0.0
2018-Feb-14 05:58N 59°54' E 028°36'0 0.0
2018-Feb-14 05:25N 59°54' E 028°36'0 0.0
2018-Feb-14 04:55N 59°54' E 028°36'0 0.0
2018-Feb-14 04:30N 59°54' E 028°36'0 0.0
2018-Feb-14 03:59N 59°54' E 028°36'0 0.0
2018-Feb-14 03:24N 59°54' E 028°36'0 0.0
2018-Feb-14 03:00N 59°54' E 028°36'0 0.0
2018-Feb-14 02:26N 59°54' E 028°36'0 0.0
2018-Feb-14 01:57N 59°54' E 028°36'0 0.0
2018-Feb-14 01:26N 59°54' E 028°36'0 0.0
2018-Feb-14 00:59N 59°54' E 028°36'0 0.0
2018-Feb-14 00:28N 59°54' E 028°36'0 0.0
2018-Feb-13 23:56N 59°54' E 028°36'0 0.0
2018-Feb-13 23:29N 59°54' E 028°36'0 0.0
2018-Feb-13 22:52N 59°54' E 028°36'0 0.0
2018-Feb-13 22:29N 59°54' E 028°36'0 0.0
2018-Feb-13 21:52N 59°54' E 028°36'0 0.0
2018-Feb-13 21:30N 59°54' E 028°36'0 0.0
2018-Feb-13 20:58N 59°54' E 028°36'0 0.0
2018-Feb-13 20:30N 59°54' E 028°36'0 0.0
2018-Feb-13 19:55N 59°54' E 028°36'0 0.0
2018-Feb-13 19:22N 59°54' E 028°36'0 0.0
2018-Feb-13 18:54N 59°54' E 028°36'0 0.0
2018-Feb-13 18:30N 59°54' E 028°36'0 0.0
2018-Feb-13 17:56N 59°54' E 028°36'0 0.0
2018-Feb-13 17:25N 59°54' E 028°36'0 0.0
2018-Feb-13 16:53N 59°54' E 028°36'0 0.8
2018-Feb-13 16:30N 59°54' E 028°36'5 9.6
2018-Feb-13 16:00N 59°52' E 028°28'3 6.7
2018-Feb-13 15:30N 59°48' E 028°26'4 7.1
2018-Feb-13 15:00N 59°52' E 028°27'1 1.3
2018-Feb-13 14:30N 59°52' E 028°29'3 6.5
2018-Feb-13 14:00N 59°49' E 028°26'3 6.3
2018-Feb-13 13:30N 59°46' E 028°25'1 1.7
2018-Feb-13 13:00N 59°47' E 028°24'2 4.8
2018-Feb-13 12:30N 59°49' E 028°25'2 4.5
2018-Feb-13 12:00N 59°51' E 028°27'2 3.5
2018-Feb-13 11:30N 59°53' E 028°29'2 4.6
2018-Feb-13 11:00N 59°54' E 028°32'2 3.5
2018-Feb-13 10:29N 59°54' E 028°36'0 0.0
2018-Feb-13 09:57N 59°54' E 028°36'0 0.0
2018-Feb-13 09:30N 59°54' E 028°36'0 0.0
2018-Feb-13 09:00N 59°54' E 028°36'0 0.0
2018-Feb-13 08:28N 59°54' E 028°36'0 0.0
2018-Feb-13 07:56N 59°54' E 028°36'0 0.0
2018-Feb-13 07:28N 59°54' E 028°36'0 0.0
2018-Feb-13 06:48N 59°54' E 028°36'0 0.0
2018-Feb-13 06:30N 59°54' E 028°36'0 0.0
2018-Feb-13 05:53N 59°54' E 028°36'0 0.0
2018-Feb-13 05:18N 59°54' E 028°36'0 0.0
2018-Feb-13 05:00N 59°54' E 028°36'0 0.0
2018-Feb-13 04:29N 59°54' E 028°36'0 0.0
2018-Feb-13 03:59N 59°54' E 028°36'1 2.3
2018-Feb-13 03:30N 59°55' E 028°37'2 4.2
2018-Feb-13 03:01N 59°57' E 028°34'1 1.0
2018-Feb-13 02:31N 59°57' E 028°35'2 4.1
2018-Feb-13 01:58N 59°55' E 028°37'0 0.0
2018-Feb-13 01:29N 59°55' E 028°37'0 0.0
2018-Feb-13 00:47N 59°55' E 028°37'0 0.0
2018-Feb-13 00:27N 59°55' E 028°37'0 0.0
2018-Feb-13 00:00N 59°55' E 028°37'0 0.0
2018-Feb-12 23:29N 59°55' E 028°37'1 1.6
2018-Feb-12 23:01N 59°56' E 028°37'5 9.4
2018-Feb-12 22:30N 60°00' E 028°35'2 4.2
2018-Feb-12 22:00N 59°58' E 028°36'3 6.5
2018-Feb-12 21:30N 59°55' E 028°33'4 7.7
2018-Feb-12 21:01N 59°52' E 028°29'4 7.7
2018-Feb-12 20:31N 59°49' E 028°26'2 4.1
2018-Feb-12 20:01N 59°47' E 028°24'0 0.0
2018-Feb-12 19:31N 59°47' E 028°24'0 0.3
2018-Feb-12 19:01N 59°47' E 028°24'  

Dump ship's entire track history